createdAt,value
2019-01-24T00:00:18.346Z,8.28
2019-01-24T00:02:46.761Z,4.70
2019-01-24T00:05:15.252Z,4.90
2019-01-24T00:07:44.301Z,5.10
2019-01-24T00:10:12.954Z,5.12
2019-01-24T00:12:41.441Z,6.20
2019-01-24T00:15:10.643Z,4.85
2019-01-24T00:17:39.141Z,4.87
2019-01-24T00:20:10.261Z,6.62
2019-01-24T00:22:39.285Z,5.10
2019-01-24T00:25:09.937Z,5.40
2019-01-24T00:27:38.521Z,6.40
2019-01-24T00:30:10.980Z,4.90
2019-01-24T00:32:39.469Z,8.10
2019-01-24T00:35:09.052Z,4.92
2019-01-24T00:37:43.697Z,7.37
2019-01-24T00:40:21.975Z,5.30
2019-01-24T00:42:50.836Z,5.33
2019-01-24T00:45:19.437Z,7.10
2019-01-24T00:47:47.848Z,4.97
2019-01-24T00:50:17.361Z,6.73
2019-01-24T00:52:46.043Z,4.90
2019-01-24T00:55:15.685Z,4.35
2019-01-24T00:57:45.077Z,6.63
2019-01-24T01:00:16.576Z,4.80
2019-01-24T01:02:45.137Z,6.33
2019-01-24T01:05:14.194Z,4.70
2019-01-24T01:07:42.685Z,4.80
2019-01-24T01:10:12.652Z,6.87
2019-01-24T01:12:41.241Z,4.62
2019-01-24T01:15:14.933Z,4.92
2019-01-24T01:17:43.612Z,6.10
2019-01-24T01:20:15.540Z,4.53
2019-01-24T01:22:44.018Z,5.27
2019-01-24T01:25:13.378Z,7.27
2019-01-24T01:27:42.050Z,4.40
2019-01-24T01:30:21.524Z,4.50
2019-01-24T01:32:50.427Z,6.47
2019-01-24T01:35:19.453Z,5.00
2019-01-24T01:37:48.096Z,4.40
2019-01-24T01:40:20.082Z,6.13
2019-01-24T01:42:48.840Z,4.97
2019-01-24T01:45:19.484Z,5.97
2019-01-24T01:47:48.273Z,5.17
2019-01-24T01:50:19.022Z,4.40
2019-01-24T01:52:47.433Z,6.17
2019-01-24T01:55:15.974Z,4.73
2019-01-24T01:57:44.396Z,6.60
2019-01-24T02:00:15.896Z,4.93
2019-01-24T02:02:47.263Z,4.60
2019-01-24T02:05:16.050Z,7.10
2019-01-24T02:07:44.525Z,4.87
2019-01-24T02:10:16.188Z,6.28
2019-01-24T02:12:44.942Z,5.00
2019-01-24T02:15:15.197Z,5.50
2019-01-24T02:17:44.191Z,4.67
2019-01-24T02:20:21.443Z,5.17
2019-01-24T02:22:50.468Z,7.13
2019-01-24T02:25:19.037Z,4.43
2019-01-24T02:27:47.464Z,4.70
2019-01-24T02:30:22.165Z,4.80
2019-01-24T02:32:50.937Z,4.70
2019-01-24T02:35:19.518Z,5.23
2019-01-24T02:37:48.333Z,6.23
2019-01-24T02:40:16.809Z,7.27
2019-01-24T02:42:46.099Z,4.63
2019-01-24T02:45:24.885Z,5.77
2019-01-24T02:47:53.888Z,4.23
2019-01-24T02:50:23.373Z,7.00
2019-01-24T02:52:52.146Z,4.83
2019-01-24T02:55:20.838Z,4.77
2019-01-24T02:57:49.351Z,6.27
2019-01-24T03:00:26.466Z,4.50
2019-01-24T03:02:54.890Z,5.67
2019-01-24T03:05:23.939Z,4.93
2019-01-24T03:07:53.548Z,4.30
2019-01-24T03:10:21.968Z,7.03
2019-01-24T03:12:50.691Z,4.70
2019-01-24T03:15:21.386Z,4.50
2019-01-24T03:17:50.429Z,4.70
2019-01-24T03:20:18.850Z,7.07
2019-01-24T03:22:48.034Z,4.25
2019-01-24T03:25:17.481Z,6.17
2019-01-24T03:27:45.966Z,4.80
2019-01-24T03:30:23.818Z,5.90
2019-01-24T03:32:52.411Z,4.63
2019-01-24T03:35:23.369Z,7.40
2019-01-24T03:37:51.844Z,4.57
2019-01-24T03:40:20.313Z,5.00
2019-01-24T03:42:48.766Z,6.03
2019-01-24T03:45:18.371Z,4.60
2019-01-24T03:47:47.084Z,6.42
2019-01-24T03:50:17.907Z,4.57
2019-01-24T03:52:46.602Z,4.60
2019-01-24T03:55:16.953Z,6.07
2019-01-24T03:57:45.357Z,4.40
2019-01-24T04:00:18.906Z,5.27
2019-01-24T04:02:47.490Z,7.13
2019-01-24T04:05:16.360Z,4.50
2019-01-24T04:07:45.166Z,6.67
2019-01-24T04:10:16.087Z,4.60
2019-01-24T04:12:44.819Z,7.27
2019-01-24T04:15:16.357Z,4.63
2019-01-24T04:17:44.813Z,4.97
2019-01-24T04:20:13.462Z,5.77
2019-01-24T04:22:42.093Z,4.57
2019-01-24T04:25:10.842Z,6.00
2019-01-24T04:27:39.336Z,4.50
2019-01-24T04:30:11.237Z,6.03
2019-01-24T04:32:39.648Z,6.63
2019-01-24T04:35:09.699Z,6.40
2019-01-24T04:37:38.525Z,4.20
2019-01-24T04:40:10.063Z,4.70
2019-01-24T04:42:38.470Z,4.47
2019-01-24T04:45:10.143Z,4.77
2019-01-24T04:47:38.714Z,5.87
2019-01-24T04:50:10.229Z,4.40
2019-01-24T04:52:39.133Z,4.70
2019-01-24T04:55:10.183Z,4.20
2019-01-24T04:57:38.593Z,6.40
2019-01-24T05:00:13.034Z,4.67
2019-01-24T05:02:41.454Z,4.70
2019-01-24T05:05:10.033Z,7.00
2019-01-24T05:07:38.477Z,5.37
2019-01-24T05:10:08.136Z,5.57
2019-01-24T05:12:36.558Z,3.97
2019-01-24T05:15:07.008Z,4.90
2019-01-24T05:17:35.409Z,4.07
2019-01-24T05:20:06.558Z,4.90
2019-01-24T05:22:35.021Z,3.50
2019-01-24T05:25:04.504Z,4.00
2019-01-24T05:27:32.918Z,3.40
2019-01-24T05:30:01.366Z,4.80
2019-01-24T05:32:29.784Z,3.73
2019-01-24T05:34:58.189Z,4.80
2019-01-24T05:37:27.270Z,3.60
2019-01-24T05:39:55.690Z,3.70
2019-01-24T05:42:24.098Z,3.50
2019-01-24T05:44:52.576Z,3.63
2019-01-24T05:47:21.626Z,3.53
2019-01-24T05:49:50.053Z,5.63
2019-01-24T05:52:19.696Z,3.77
2019-01-24T05:54:48.434Z,3.70
2019-01-24T05:57:16.841Z,5.77
2019-01-24T05:59:46.071Z,3.90
2019-01-24T06:02:14.483Z,3.47
2019-01-24T06:04:42.897Z,4.80
2019-01-24T06:07:11.803Z,3.33
2019-01-24T06:09:40.218Z,3.87
2019-01-24T06:12:08.631Z,5.13
2019-01-24T06:14:37.257Z,3.97
2019-01-24T06:17:05.682Z,4.57
2019-01-24T06:19:34.102Z,4.17
2019-01-24T06:22:03.406Z,5.50
2019-01-24T06:24:31.825Z,5.70
2019-01-24T06:27:00.234Z,9.37
2019-01-24T06:29:28.864Z,14.50
2019-01-24T06:31:57.273Z,7.87
2019-01-24T06:34:25.718Z,8.60
2019-01-24T06:36:54.705Z,6.70
2019-01-24T06:39:23.281Z,6.43
2019-01-24T06:41:51.685Z,9.93
2019-01-24T06:44:20.873Z,6.53
2019-01-24T06:46:49.310Z,8.73
2019-01-24T06:49:17.713Z,6.30
2019-01-24T06:51:46.325Z,6.40
2019-01-24T06:54:14.733Z,7.07
2019-01-24T06:56:43.165Z,7.60
2019-01-24T06:59:11.977Z,11.30
2019-01-24T07:01:40.405Z,6.37
2019-01-24T07:04:08.801Z,7.53
2019-01-24T07:06:38.049Z,5.57
2019-01-24T07:09:07.998Z,5.00
2019-01-24T07:11:36.410Z,5.63
2019-01-24T07:14:04.870Z,8.23
2019-01-24T07:16:33.284Z,5.23
2019-01-24T07:19:01.709Z,5.33
2019-01-24T07:21:30.656Z,5.70
2019-01-24T07:23:59.080Z,6.40
2019-01-24T07:26:27.492Z,5.37
2019-01-24T07:28:56.404Z,6.43
2019-01-24T07:31:24.822Z,5.17
2019-01-24T07:33:53.246Z,4.80
2019-01-24T07:36:21.744Z,5.23
2019-01-24T07:38:50.161Z,8.33
2019-01-24T07:41:18.569Z,5.83
2019-01-24T07:43:47.404Z,7.67
2019-01-24T07:46:15.829Z,5.97
2019-01-24T07:48:46.132Z,5.67
2019-01-24T07:51:15.434Z,4.87
2019-01-24T07:53:43.854Z,5.23
2019-01-24T07:56:12.271Z,6.93
2019-01-24T07:58:41.111Z,4.73
2019-01-24T08:01:09.585Z,9.33
2019-01-24T08:03:38.117Z,5.90
2019-01-24T08:06:09.154Z,8.97
2019-01-24T08:08:37.067Z,4.60
2019-01-24T08:11:05.483Z,10.53
2019-01-24T08:13:34.609Z,5.83
2019-01-24T08:16:03.027Z,5.90
2019-01-24T08:18:31.432Z,6.43
2019-01-24T08:21:00.053Z,4.40
2019-01-24T08:23:28.473Z,4.57
2019-01-24T08:25:56.884Z,4.57
2019-01-24T08:28:25.517Z,8.83
2019-01-24T08:30:53.933Z,4.50
2019-01-24T08:33:22.340Z,4.63
2019-01-24T08:35:51.369Z,5.00
2019-01-24T08:38:19.788Z,3.97
2019-01-24T08:40:48.217Z,6.63
2019-01-24T08:43:17.015Z,4.37
2019-01-24T08:45:45.424Z,5.87
2019-01-24T08:48:13.837Z,4.67
2019-01-24T08:50:42.812Z,5.13
2019-01-24T08:53:11.225Z,4.07
2019-01-24T08:55:39.870Z,4.00
2019-01-24T08:58:10.559Z,5.60
2019-01-24T09:00:39.045Z,4.20
2019-01-24T09:03:07.728Z,5.33
2019-01-24T09:05:36.366Z,4.37
2019-01-24T09:08:06.020Z,3.63
2019-01-24T09:10:36.668Z,3.60
2019-01-24T09:13:06.261Z,5.43
2019-01-24T09:15:34.844Z,4.53
2019-01-24T09:18:03.531Z,4.23
2019-01-24T09:20:32.319Z,4.03
2019-01-24T09:23:00.731Z,5.43
2019-01-24T09:25:29.386Z,4.10
2019-01-24T09:27:58.069Z,4.17
2019-01-24T09:30:28.704Z,5.30
2019-01-24T09:32:57.358Z,3.87
2019-01-24T09:35:26.068Z,3.60
2019-01-24T09:37:54.558Z,3.73
2019-01-24T09:40:23.800Z,4.25
2019-01-24T09:42:52.561Z,4.13
2019-01-24T09:45:26.208Z,4.90
2019-01-24T09:47:57.021Z,4.03
2019-01-24T09:50:26.681Z,3.83
2019-01-24T09:52:56.288Z,4.00
2019-01-24T09:55:25.133Z,3.97
2019-01-24T09:57:54.057Z,4.27
2019-01-24T10:00:31.016Z,3.97
2019-01-24T10:02:59.609Z,4.00
2019-01-24T10:05:28.058Z,4.27
2019-01-24T10:07:56.822Z,4.10
2019-01-24T10:10:27.063Z,4.10
2019-01-24T10:12:56.322Z,3.50
2019-01-24T10:15:25.420Z,4.13
2019-01-24T10:17:54.177Z,4.13
2019-01-24T10:20:24.528Z,3.60
2019-01-24T10:22:53.755Z,3.40
2019-01-24T10:25:27.742Z,3.67
2019-01-24T10:27:56.440Z,3.70
2019-01-24T10:30:26.109Z,3.53
2019-01-24T10:32:54.756Z,3.67
2019-01-24T10:35:23.634Z,4.47
2019-01-24T10:37:52.537Z,4.17
2019-01-24T10:40:28.776Z,4.30
2019-01-24T10:42:57.754Z,4.73
2019-01-24T10:45:26.163Z,3.77
2019-01-24T10:47:55.116Z,3.87
2019-01-24T10:50:25.854Z,3.70
2019-01-24T10:52:54.432Z,5.73
2019-01-24T10:55:25.558Z,3.80
2019-01-24T10:57:55.263Z,4.87
2019-01-24T11:00:26.699Z,4.33
2019-01-24T11:02:55.444Z,4.43
2019-01-24T11:05:24.673Z,3.60
2019-01-24T11:07:53.092Z,6.00
2019-01-24T11:10:21.841Z,3.77
2019-01-24T11:12:50.920Z,3.50
2019-01-24T11:15:24.224Z,6.97
2019-01-24T11:17:52.704Z,6.90
2019-01-24T11:20:21.904Z,6.87
2019-01-24T11:22:50.681Z,7.93
2019-01-24T11:25:24.821Z,5.17
2019-01-24T11:27:53.997Z,7.70
2019-01-24T11:30:27.243Z,6.33
2019-01-24T11:32:56.072Z,7.57
2019-01-24T11:35:27.961Z,7.90
2019-01-24T11:37:56.436Z,8.03
2019-01-24T11:40:24.983Z,11.83
2019-01-24T11:42:55.077Z,8.23
2019-01-24T11:45:26.497Z,11.23
2019-01-24T11:47:54.909Z,9.33
2019-01-24T11:50:23.744Z,9.30
2019-01-24T11:52:52.341Z,15.93
2019-01-24T11:55:22.124Z,11.53
2019-01-24T11:57:50.692Z,9.15
2019-01-24T12:00:32.579Z,10.60
2019-01-24T12:03:02.240Z,9.87
2019-01-24T12:05:30.666Z,12.60
2019-01-24T12:07:59.193Z,7.63
2019-01-24T12:10:30.166Z,10.10
2019-01-24T12:12:58.583Z,8.07
2019-01-24T12:15:32.799Z,11.07
2019-01-24T12:18:01.277Z,9.13
2019-01-24T12:20:29.762Z,9.77
2019-01-24T12:22:58.181Z,11.10
2019-01-24T12:25:27.293Z,20.10
2019-01-24T12:27:55.715Z,18.50
2019-01-24T12:30:29.342Z,11.93
2019-01-24T12:32:58.494Z,16.80
2019-01-24T12:35:27.147Z,20.00
2019-01-24T12:37:56.725Z,14.40
2019-01-24T12:40:29.945Z,11.43
2019-01-24T12:42:58.366Z,15.27
2019-01-24T12:45:29.682Z,14.33
2019-01-24T12:47:58.263Z,11.97
2019-01-24T12:50:26.682Z,16.40
2019-01-24T12:52:55.322Z,12.10
2019-01-24T12:55:24.056Z,15.47
2019-01-24T12:57:52.535Z,15.20
2019-01-24T13:00:26.290Z,12.23
2019-01-24T13:02:55.907Z,10.05
2019-01-24T13:05:24.329Z,13.00
2019-01-24T13:07:52.732Z,14.87
2019-01-24T13:10:26.570Z,10.87
2019-01-24T13:12:54.993Z,12.03
2019-01-24T13:15:26.212Z,12.73
2019-01-24T13:17:55.183Z,15.37
2019-01-24T13:20:23.605Z,12.47
2019-01-24T13:22:52.102Z,15.47
2019-01-24T13:25:29.990Z,11.53
2019-01-24T13:27:58.427Z,15.50
2019-01-24T13:30:31.697Z,10.57
2019-01-24T13:33:03.381Z,20.50
2019-01-24T13:35:31.788Z,8.83
2019-01-24T13:38:00.282Z,16.33
2019-01-24T13:40:30.688Z,8.47
2019-01-24T13:42:59.757Z,11.10
2019-01-24T13:45:30.512Z,12.03
2019-01-24T13:47:59.524Z,15.53
2019-01-24T13:50:27.949Z,10.93
2019-01-24T13:52:56.374Z,11.87
2019-01-24T13:55:28.120Z,7.30
2019-01-24T13:57:56.601Z,7.47
2019-01-24T14:00:30.733Z,8.63
2019-01-24T14:03:06.375Z,9.07
2019-01-24T14:05:34.789Z,10.70
2019-01-24T14:08:03.413Z,10.27
2019-01-24T14:10:32.336Z,9.88
2019-01-24T14:13:00.821Z,9.30
2019-01-24T14:15:29.239Z,10.93
2019-01-24T14:17:57.870Z,9.13
2019-01-24T14:20:26.371Z,12.07
2019-01-24T14:22:54.849Z,7.55
2019-01-24T14:25:24.212Z,9.65
2019-01-24T14:27:52.642Z,11.60
2019-01-24T14:30:26.543Z,8.75
2019-01-24T14:32:56.538Z,8.48
2019-01-24T14:35:24.959Z,8.05
2019-01-24T14:37:53.448Z,9.43
2019-01-24T14:40:22.084Z,8.78
2019-01-24T14:42:50.581Z,6.33
2019-01-24T14:45:24.517Z,6.75
2019-01-24T14:47:53.275Z,7.67
2019-01-24T14:50:29.224Z,6.65
2019-01-24T14:52:58.121Z,10.18
2019-01-24T14:55:26.710Z,8.13
2019-01-24T14:57:55.311Z,12.00
2019-01-24T15:00:27.134Z,8.80
2019-01-24T15:02:55.619Z,8.33
2019-01-24T15:05:24.092Z,8.05
2019-01-24T15:07:53.251Z,11.30
2019-01-24T15:10:21.797Z,6.58
2019-01-24T15:12:50.298Z,8.00
2019-01-24T15:15:21.223Z,7.47
2019-01-24T15:17:49.701Z,8.25
2019-01-24T15:20:20.719Z,7.70
2019-01-24T15:22:49.587Z,10.65
2019-01-24T15:25:19.841Z,14.97
2019-01-24T15:27:48.445Z,8.45
2019-01-24T15:30:20.507Z,13.23
2019-01-24T15:36:41.325Z,11.10
2019-01-24T15:39:09.752Z,7.60
2019-01-24T15:41:38.309Z,12.88
2019-01-24T15:44:08.004Z,6.60
2019-01-24T15:46:36.438Z,9.17
2019-01-24T15:49:05.014Z,7.37
2019-01-24T15:51:34.675Z,8.47
2019-01-24T15:54:03.147Z,6.90
2019-01-24T15:56:31.654Z,7.00
2019-01-24T15:59:00.640Z,6.50
2019-01-24T16:01:29.082Z,7.53
2019-01-24T16:03:57.578Z,7.20
2019-01-24T16:06:26.185Z,9.27
2019-01-24T16:08:54.598Z,7.33
2019-01-24T16:11:23.030Z,7.70
2019-01-24T16:13:52.034Z,12.13
2019-01-24T16:16:20.442Z,6.80
2019-01-24T16:18:48.854Z,7.67
2019-01-24T16:21:17.581Z,8.53
2019-01-24T16:23:45.991Z,5.77
2019-01-24T16:26:14.399Z,7.23
2019-01-24T16:28:42.888Z,8.50
2019-01-24T16:31:11.307Z,6.40
2019-01-24T16:33:39.709Z,5.27
2019-01-24T16:36:09.283Z,4.73
2019-01-24T16:38:37.695Z,7.00
2019-01-24T16:41:06.110Z,4.83
2019-01-24T16:43:35.166Z,6.70
2019-01-24T16:46:03.763Z,4.67
2019-01-24T16:48:32.180Z,5.30
2019-01-24T16:51:00.802Z,9.37
2019-01-24T16:53:29.334Z,5.87
2019-01-24T16:55:57.749Z,4.70
2019-01-24T16:58:27.792Z,7.03
2019-01-24T17:00:56.449Z,4.57
2019-01-24T17:03:24.999Z,11.93
2019-01-24T17:05:53.644Z,7.27
2019-01-24T17:08:22.077Z,6.30
2019-01-24T17:10:50.500Z,4.80
2019-01-24T17:13:19.384Z,5.15
2019-01-24T17:15:48.076Z,5.55
2019-01-24T17:18:16.502Z,5.17
2019-01-24T17:20:45.316Z,6.03
2019-01-24T17:23:13.765Z,8.95
2019-01-24T17:25:42.260Z,4.53
2019-01-24T17:28:10.746Z,8.10
2019-01-24T17:30:39.676Z,6.97
2019-01-24T17:33:08.345Z,5.20
2019-01-24T17:35:37.675Z,7.60
2019-01-24T17:38:06.102Z,5.23
2019-01-24T17:40:35.772Z,7.05
2019-01-24T17:43:06.128Z,5.10
2019-01-24T17:45:34.627Z,6.07
2019-01-24T17:48:03.137Z,5.67
2019-01-24T17:50:31.829Z,5.17
2019-01-24T17:53:00.245Z,6.37
2019-01-24T17:55:31.570Z,7.37
2019-01-24T17:58:00.029Z,7.77
2019-01-24T18:00:30.518Z,5.83
2019-01-24T18:02:58.964Z,6.67
2019-01-24T18:05:28.250Z,9.60
2019-01-24T18:07:56.657Z,8.67
2019-01-24T18:10:27.476Z,8.05
2019-01-24T18:12:55.944Z,7.10
2019-01-24T18:15:30.235Z,10.03
2019-01-24T18:17:58.878Z,7.27
2019-01-24T18:20:30.809Z,12.40
2019-01-24T18:22:59.587Z,7.97
2019-01-24T18:25:28.009Z,6.50
2019-01-24T18:27:56.542Z,11.90
2019-01-24T18:30:29.633Z,7.33
2019-01-24T18:32:58.055Z,12.60
2019-01-24T18:35:26.846Z,14.75
2019-01-24T18:37:55.343Z,9.75
2019-01-24T18:40:29.303Z,7.62
2019-01-24T18:42:59.343Z,9.80
2019-01-24T18:45:37.053Z,6.20
2019-01-24T18:48:06.957Z,7.80
2019-01-24T18:50:35.444Z,12.10
2019-01-24T18:53:04.295Z,6.15
2019-01-24T18:55:33.005Z,7.35
2019-01-24T18:58:01.438Z,13.27
2019-01-24T19:00:31.719Z,5.50
2019-01-24T19:03:02.040Z,9.63
2019-01-24T19:05:30.595Z,9.25
2019-01-24T19:07:59.020Z,8.70
2019-01-24T19:10:28.604Z,9.40
2019-01-24T19:12:57.019Z,5.15
2019-01-24T19:15:25.569Z,7.90
2019-01-24T19:17:54.371Z,6.83
2019-01-24T19:20:22.847Z,8.23
2019-01-24T19:22:51.260Z,8.00
2019-01-24T19:25:22.346Z,6.00
2019-01-24T19:27:50.933Z,9.83
2019-01-24T19:30:31.105Z,6.87
2019-01-24T19:33:00.164Z,8.55
2019-01-24T19:35:28.727Z,5.95
2019-01-24T19:37:57.505Z,6.47
2019-01-24T19:40:27.784Z,6.97
2019-01-24T19:42:56.271Z,8.27
2019-01-24T19:45:27.013Z,5.87
2019-01-24T19:47:55.665Z,4.72
2019-01-24T19:50:26.336Z,8.20
2019-01-24T19:52:55.970Z,8.30
2019-01-24T19:55:24.559Z,9.25
2019-01-24T19:57:53.448Z,5.63
2019-01-24T20:00:27.826Z,12.87
2019-01-24T20:02:56.595Z,7.92
2019-01-24T20:05:25.831Z,9.37
2019-01-24T20:07:54.781Z,8.60
2019-01-24T20:10:30.985Z,8.80
2019-01-24T20:12:59.603Z,6.67
2019-01-24T20:15:29.960Z,7.47
2019-01-24T20:17:58.913Z,6.70
2019-01-24T20:20:31.494Z,7.20
2019-01-24T20:22:59.934Z,6.30
2019-01-24T20:25:30.403Z,5.90
2019-01-24T20:27:59.124Z,6.37
2019-01-24T20:30:31.952Z,6.37
2019-01-24T20:33:01.415Z,6.75
2019-01-24T20:35:33.239Z,5.45
2019-01-24T20:38:01.661Z,8.13
2019-01-24T20:40:30.261Z,5.40
2019-01-24T20:42:58.996Z,5.43
2019-01-24T20:45:27.425Z,7.20
2019-01-24T20:47:55.841Z,7.53
2019-01-24T20:50:24.289Z,7.10
2019-01-24T20:52:52.710Z,11.12
2019-01-24T20:55:21.138Z,6.80
2019-01-24T20:57:50.158Z,7.67
2019-01-24T21:00:25.631Z,9.10
2019-01-24T21:02:55.385Z,7.78
2019-01-24T21:05:24.734Z,7.73
2019-01-24T21:07:53.695Z,5.40
2019-01-24T21:10:27.377Z,8.33
2019-01-24T21:12:55.791Z,7.23
2019-01-24T21:15:24.315Z,9.17
2019-01-24T21:17:53.171Z,9.03
2019-01-24T21:20:26.659Z,7.00
2019-01-24T21:22:55.428Z,6.67
2019-01-24T21:25:24.951Z,6.23
2019-01-24T21:27:53.379Z,6.90
2019-01-24T21:30:36.487Z,5.57
